sensor_id;sensor_type;location;lat;lon;timestamp;P1;durP1;ratioP1;P2;durP2;ratioP2
53503;SDS011;39387;50.998;22.340;2023-02-01T00:02:16;16.20;;;7.68;;
53503;SDS011;39387;50.998;22.340;2023-02-01T00:04:45;17.38;;;7.53;;
53503;SDS011;39387;50.998;22.340;2023-02-01T00:07:12;17.15;;;8.35;;
53503;SDS011;39387;50.998;22.340;2023-02-01T00:09:40;17.42;;;7.90;;
53503;SDS011;39387;50.998;22.340;2023-02-01T00:12:07;13.98;;;7.60;;
53503;SDS011;39387;50.998;22.340;2023-02-01T00:14:35;15.27;;;7.78;;
53503;SDS011;39387;50.998;22.340;2023-02-01T00:17:04;15.25;;;7.82;;
53503;SDS011;39387;50.998;22.340;2023-02-01T00:19:32;14.63;;;7.63;;
53503;SDS011;39387;50.998;22.340;2023-02-01T00:22:02;15.52;;;8.65;;
53503;SDS011;39387;50.998;22.340;2023-02-01T00:24:29;13.05;;;7.43;;
53503;SDS011;39387;50.998;22.340;2023-02-01T00:26:56;15.25;;;7.80;;
53503;SDS011;39387;50.998;22.340;2023-02-01T00:29:24;16.70;;;7.88;;
53503;SDS011;39387;50.998;22.340;2023-02-01T00:31:51;13.73;;;7.55;;
53503;SDS011;39387;50.998;22.340;2023-02-01T00:34:19;14.55;;;7.80;;
53503;SDS011;39387;50.998;22.340;2023-02-01T00:36:47;14.75;;;7.47;;
53503;SDS011;39387;50.998;22.340;2023-02-01T00:39:19;15.45;;;7.90;;
53503;SDS011;39387;50.998;22.340;2023-02-01T00:41:46;19.65;;;8.02;;
53503;SDS011;39387;50.998;22.340;2023-02-01T00:44:13;13.43;;;6.70;;
53503;SDS011;39387;50.998;22.340;2023-02-01T00:46:41;14.45;;;7.43;;
53503;SDS011;39387;50.998;22.340;2023-02-01T00:49:08;15.63;;;7.70;;
53503;SDS011;39387;50.998;22.340;2023-02-01T00:51:36;12.85;;;7.57;;
53503;SDS011;39387;50.998;22.340;2023-02-01T00:54:03;12.60;;;7.43;;
53503;SDS011;39387;50.998;22.340;2023-02-01T00:56:32;14.07;;;6.85;;
53503;SDS011;39387;50.998;22.340;2023-02-01T00:58:59;12.13;;;6.90;;
53503;SDS011;39387;50.998;22.340;2023-02-01T01:01:27;14.80;;;7.38;;
53503;SDS011;39387;50.998;22.340;2023-02-01T01:03:55;14.80;;;7.38;;
53503;SDS011;39387;50.998;22.340;2023-02-01T01:06:25;13.35;;;6.88;;
53503;SDS011;39387;50.998;22.340;2023-02-01T01:08:53;16.08;;;8.13;;
53503;SDS011;39387;50.998;22.340;2023-02-01T01:11:22;13.52;;;7.05;;
53503;SDS011;39387;50.998;22.340;2023-02-01T01:13:53;12.05;;;6.93;;
53503;SDS011;39387;50.998;22.340;2023-02-01T01:18:50;10.48;;;6.40;;
53503;SDS011;39387;50.998;22.340;2023-02-01T01:21:18;17.05;;;7.70;;
53503;SDS011;39387;50.998;22.340;2023-02-01T01:23:45;13.13;;;6.70;;
53503;SDS011;39387;50.998;22.340;2023-02-01T01:26:15;11.85;;;6.70;;
53503;SDS011;39387;50.998;22.340;2023-02-01T01:28:43;11.48;;;6.75;;
53503;SDS011;39387;50.998;22.340;2023-02-01T01:31:14;12.13;;;6.30;;
53503;SDS011;39387;50.998;22.340;2023-02-01T01:33:42;12.52;;;7.00;;
53503;SDS011;39387;50.998;22.340;2023-02-01T01:36:11;13.77;;;6.63;;
53503;SDS011;39387;50.998;22.340;2023-02-01T01:38:39;10.23;;;5.80;;
53503;SDS011;39387;50.998;22.340;2023-02-01T01:41:07;11.13;;;6.07;;
53503;SDS011;39387;50.998;22.340;2023-02-01T01:43:54;10.98;;;6.00;;
53503;SDS011;39387;50.998;22.340;2023-02-01T01:46:25;12.15;;;5.78;;
53503;SDS011;39387;50.998;22.340;2023-02-01T01:48:56;9.10;;;5.60;;
53503;SDS011;39387;50.998;22.340;2023-02-01T01:51:27;11.25;;;5.55;;
53503;SDS011;39387;50.998;22.340;2023-02-01T01:53:57;10.80;;;5.85;;
53503;SDS011;39387;50.998;22.340;2023-02-01T01:56:27;9.35;;;5.68;;
53503;SDS011;39387;50.998;22.340;2023-02-01T01:58:55;10.98;;;6.45;;
53503;SDS011;39387;50.998;22.340;2023-02-01T02:01:25;13.45;;;6.35;;
53503;SDS011;39387;50.998;22.340;2023-02-01T02:03:52;10.93;;;5.78;;
53503;SDS011;39387;50.998;22.340;2023-02-01T02:06:23;12.32;;;6.47;;
53503;SDS011;39387;50.998;22.340;2023-02-01T02:08:55;11.32;;;6.18;;
53503;SDS011;39387;50.998;22.340;2023-02-01T02:11:22;10.15;;;6.15;;
53503;SDS011;39387;50.998;22.340;2023-02-01T02:13:50;11.40;;;6.32;;
53503;SDS011;39387;50.998;22.340;2023-02-01T02:16:23;12.38;;;6.13;;
53503;SDS011;39387;50.998;22.340;2023-02-01T02:19:09;11.55;;;5.75;;
53503;SDS011;39387;50.998;22.340;2023-02-01T02:21:55;8.95;;;4.93;;
53503;SDS011;39387;50.998;22.340;2023-02-01T02:24:43;7.55;;;4.03;;
53503;SDS011;39387;50.998;22.340;2023-02-01T02:27:24;7.07;;;4.32;;
53503;SDS011;39387;50.998;22.340;2023-02-01T02:35:54;6.28;;;3.83;;
53503;SDS011;39387;50.998;22.340;2023-02-01T02:38:29;7.28;;;3.83;;
53503;SDS011;39387;50.998;22.340;2023-02-01T02:41:00;6.07;;;3.75;;
53503;SDS011;39387;50.998;22.340;2023-02-01T02:43:39;7.18;;;3.47;;
53503;SDS011;39387;50.998;22.340;2023-02-01T02:46:29;8.27;;;3.60;;
53503;SDS011;39387;50.998;22.340;2023-02-01T02:49:20;6.13;;;3.45;;
53503;SDS011;39387;50.998;22.340;2023-02-01T02:51:50;5.47;;;3.40;;
53503;SDS011;39387;50.998;22.340;2023-02-01T02:54:37;6.03;;;3.17;;
53503;SDS011;39387;50.998;22.340;2023-02-01T02:57:16;5.32;;;3.10;;
53503;SDS011;39387;50.998;22.340;2023-02-01T03:00:04;5.85;;;2.83;;
53503;SDS011;39387;50.998;22.340;2023-02-01T03:02:51;5.80;;;3.08;;
53503;SDS011;39387;50.998;22.340;2023-02-01T03:05:39;4.60;;;2.95;;
53503;SDS011;39387;50.998;22.340;2023-02-01T03:08:09;5.00;;;2.40;;
53503;SDS011;39387;50.998;22.340;2023-02-01T03:10:42;5.20;;;2.60;;
53503;SDS011;39387;50.998;22.340;2023-02-01T03:13:16;4.55;;;2.20;;
53503;SDS011;39387;50.998;22.340;2023-02-01T03:15:48;3.85;;;2.35;;
53503;SDS011;39387;50.998;22.340;2023-02-01T03:18:20;5.07;;;2.30;;
53503;SDS011;39387;50.998;22.340;2023-02-01T03:20:54;4.18;;;2.10;;
53503;SDS011;39387;50.998;22.340;2023-02-01T03:23:24;3.13;;;2.05;;
53503;SDS011;39387;50.998;22.340;2023-02-01T03:25:55;2.85;;;1.92;;
53503;SDS011;39387;50.998;22.340;2023-02-01T03:28:23;2.47;;;2.00;;
53503;SDS011;39387;50.998;22.340;2023-02-01T03:30:52;6.22;;;1.80;;
53503;SDS011;39387;50.998;22.340;2023-02-01T03:33:21;3.45;;;1.83;;
53503;SDS011;39387;50.998;22.340;2023-02-01T03:35:54;5.07;;;1.97;;
53503;SDS011;39387;50.998;22.340;2023-02-01T03:38:25;4.25;;;1.83;;
53503;SDS011;39387;50.998;22.340;2023-02-01T03:40:56;6.03;;;1.65;;
53503;SDS011;39387;50.998;22.340;2023-02-01T03:43:25;5.47;;;1.35;;
53503;SDS011;39387;50.998;22.340;2023-02-01T03:45:57;2.15;;;1.20;;
53503;SDS011;39387;50.998;22.340;2023-02-01T03:48:27;2.78;;;1.60;;
53503;SDS011;39387;50.998;22.340;2023-02-01T03:50:57;6.20;;;1.40;;
53503;SDS011;39387;50.998;22.340;2023-02-01T03:53:26;1.88;;;1.10;;
53503;SDS011;39387;50.998;22.340;2023-02-01T03:55:55;2.83;;;1.20;;
53503;SDS011;39387;50.998;22.340;2023-02-01T03:58:22;1.70;;;1.20;;
53503;SDS011;39387;50.998;22.340;2023-02-01T04:00:51;4.10;;;1.67;;
53503;SDS011;39387;50.998;22.340;2023-02-01T04:03:20;4.85;;;1.13;;
53503;SDS011;39387;50.998;22.340;2023-02-01T04:05:48;1.70;;;0.90;;
53503;SDS011;39387;50.998;22.340;2023-02-01T04:08:17;2.25;;;0.93;;
53503;SDS011;39387;50.998;22.340;2023-02-01T04:10:45;3.75;;;0.98;;
53503;SDS011;39387;50.998;22.340;2023-02-01T04:13:12;2.42;;;1.02;;
53503;SDS011;39387;50.998;22.340;2023-02-01T04:15:40;3.00;;;1.00;;
53503;SDS011;39387;50.998;22.340;2023-02-01T04:18:07;3.03;;;1.20;;
53503;SDS011;39387;50.998;22.340;2023-02-01T04:20:35;5.65;;;1.08;;
53503;SDS011;39387;50.998;22.340;2023-02-01T04:23:02;2.47;;;1.33;;
53503;SDS011;39387;50.998;22.340;2023-02-01T04:25:31;2.25;;;0.80;;
53503;SDS011;39387;50.998;22.340;2023-02-01T04:27:58;3.05;;;0.82;;
53503;SDS011;39387;50.998;22.340;2023-02-01T04:30:26;5.63;;;1.10;;
53503;SDS011;39387;50.998;22.340;2023-02-01T04:32:53;3.15;;;1.10;;
53503;SDS011;39387;50.998;22.340;2023-02-01T04:35:21;5.22;;;0.85;;
53503;SDS011;39387;50.998;22.340;2023-02-01T04:37:48;3.60;;;0.95;;
53503;SDS011;39387;50.998;22.340;2023-02-01T04:40:16;5.30;;;0.93;;
53503;SDS011;39387;50.998;22.340;2023-02-01T04:42:45;2.88;;;0.95;;
53503;SDS011;39387;50.998;22.340;2023-02-01T04:45:12;5.78;;;1.20;;
53503;SDS011;39387;50.998;22.340;2023-02-01T04:47:40;3.60;;;1.20;;
53503;SDS011;39387;50.998;22.340;2023-02-01T04:50:07;7.65;;;1.83;;
53503;SDS011;39387;50.998;22.340;2023-02-01T04:52:36;2.72;;;1.38;;
53503;SDS011;39387;50.998;22.340;2023-02-01T04:55:04;2.38;;;0.85;;
53503;SDS011;39387;50.998;22.340;2023-02-01T04:57:32;2.63;;;1.38;;
53503;SDS011;39387;50.998;22.340;2023-02-01T05:00:01;4.72;;;1.10;;
53503;SDS011;39387;50.998;22.340;2023-02-01T05:02:29;4.30;;;1.30;;
53503;SDS011;39387;50.998;22.340;2023-02-01T05:04:58;7.95;;;1.10;;
53503;SDS011;39387;50.998;22.340;2023-02-01T05:07:25;4.88;;;1.55;;
53503;SDS011;39387;50.998;22.340;2023-02-01T05:09:52;4.25;;;0.90;;
53503;SDS011;39387;50.998;22.340;2023-02-01T05:12:20;5.05;;;1.85;;
53503;SDS011;39387;50.998;22.340;2023-02-01T05:15:06;5.68;;;1.40;;
53503;SDS011;39387;50.998;22.340;2023-02-01T05:17:34;6.50;;;1.38;;
53503;SDS011;39387;50.998;22.340;2023-02-01T05:20:02;2.40;;;1.63;;
53503;SDS011;39387;50.998;22.340;2023-02-01T05:22:29;1.45;;;0.82;;
53503;SDS011;39387;50.998;22.340;2023-02-01T05:24:57;4.65;;;1.42;;
53503;SDS011;39387;50.998;22.340;2023-02-01T05:27:24;7.32;;;1.25;;
53503;SDS011;39387;50.998;22.340;2023-02-01T05:29:52;4.43;;;1.00;;
53503;SDS011;39387;50.998;22.340;2023-02-01T05:32:20;3.15;;;1.10;;
53503;SDS011;39387;50.998;22.340;2023-02-01T05:34:48;4.97;;;2.03;;
53503;SDS011;39387;50.998;22.340;2023-02-01T05:37:15;4.07;;;1.20;;
53503;SDS011;39387;50.998;22.340;2023-02-01T05:39:43;4.95;;;1.05;;
53503;SDS011;39387;50.998;22.340;2023-02-01T05:42:10;4.88;;;1.50;;
53503;SDS011;39387;50.998;22.340;2023-02-01T05:44:38;4.53;;;1.40;;
53503;SDS011;39387;50.998;22.340;2023-02-01T05:47:05;3.83;;;1.48;;
53503;SDS011;39387;50.998;22.340;2023-02-01T05:49:34;1.83;;;1.08;;
53503;SDS011;39387;50.998;22.340;2023-02-01T05:52:01;4.10;;;1.33;;
53503;SDS011;39387;50.998;22.340;2023-02-01T05:54:29;3.45;;;1.35;;
53503;SDS011;39387;50.998;22.340;2023-02-01T05:56:57;3.70;;;1.55;;
53503;SDS011;39387;50.998;22.340;2023-02-01T05:59:24;6.30;;;1.48;;
53503;SDS011;39387;50.998;22.340;2023-02-01T06:01:52;5.55;;;1.40;;
53503;SDS011;39387;50.998;22.340;2023-02-01T06:04:19;4.32;;;1.77;;
53503;SDS011;39387;50.998;22.340;2023-02-01T06:06:48;5.68;;;1.20;;
53503;SDS011;39387;50.998;22.340;2023-02-01T06:09:17;4.38;;;1.23;;
53503;SDS011;39387;50.998;22.340;2023-02-01T06:11:44;4.88;;;1.10;;
53503;SDS011;39387;50.998;22.340;2023-02-01T06:14:12;5.68;;;1.20;;
53503;SDS011;39387;50.998;22.340;2023-02-01T06:16:39;3.75;;;1.10;;
53503;SDS011;39387;50.998;22.340;2023-02-01T06:19:07;4.10;;;1.40;;
53503;SDS011;39387;50.998;22.340;2023-02-01T06:21:34;4.13;;;1.17;;
53503;SDS011;39387;50.998;22.340;2023-02-01T06:24:04;8.15;;;1.55;;
53503;SDS011;39387;50.998;22.340;2023-02-01T06:26:32;4.13;;;1.48;;
53503;SDS011;39387;50.998;22.340;2023-02-01T06:28:59;12.73;;;1.70;;
53503;SDS011;39387;50.998;22.340;2023-02-01T06:31:26;2.60;;;1.13;;
53503;SDS011;39387;50.998;22.340;2023-02-01T06:33:54;6.25;;;1.65;;
53503;SDS011;39387;50.998;22.340;2023-02-01T06:36:21;3.75;;;1.33;;
53503;SDS011;39387;50.998;22.340;2023-02-01T06:38:49;3.75;;;1.48;;
53503;SDS011;39387;50.998;22.340;2023-02-01T06:41:18;5.53;;;1.40;;
53503;SDS011;39387;50.998;22.340;2023-02-01T06:43:46;7.00;;;1.67;;
53503;SDS011;39387;50.998;22.340;2023-02-01T06:46:13;8.23;;;1.67;;
53503;SDS011;39387;50.998;22.340;2023-02-01T06:48:41;7.20;;;1.75;;
53503;SDS011;39387;50.998;22.340;2023-02-01T06:51:16;5.57;;;1.48;;
53503;SDS011;39387;50.998;22.340;2023-02-01T06:53:45;4.72;;;1.42;;
53503;SDS011;39387;50.998;22.340;2023-02-01T06:56:13;4.70;;;1.55;;
53503;SDS011;39387;50.998;22.340;2023-02-01T06:58:42;5.70;;;1.50;;
53503;SDS011;39387;50.998;22.340;2023-02-01T07:01:10;3.63;;;1.48;;
53503;SDS011;39387;50.998;22.340;2023-02-01T07:03:38;6.57;;;1.40;;
53503;SDS011;39387;50.998;22.340;2023-02-01T07:06:05;4.47;;;1.60;;
53503;SDS011;39387;50.998;22.340;2023-02-01T07:08:33;9.75;;;1.80;;
53503;SDS011;39387;50.998;22.340;2023-02-01T07:11:02;4.47;;;1.42;;
53503;SDS011;39387;50.998;22.340;2023-02-01T07:13:30;2.55;;;1.35;;
53503;SDS011;39387;50.998;22.340;2023-02-01T07:15:59;6.75;;;1.50;;
53503;SDS011;39387;50.998;22.340;2023-02-01T07:18:27;2.92;;;1.30;;
53503;SDS011;39387;50.998;22.340;2023-02-01T07:20:55;3.83;;;1.13;;
53503;SDS011;39387;50.998;22.340;2023-02-01T07:23:23;4.28;;;1.38;;
53503;SDS011;39387;50.998;22.340;2023-02-01T07:25:52;6.05;;;1.73;;
53503;SDS011;39387;50.998;22.340;2023-02-01T07:28:20;3.33;;;1.10;;
53503;SDS011;39387;50.998;22.340;2023-02-01T07:30:48;8.38;;;1.80;;
53503;SDS011;39387;50.998;22.340;2023-02-01T07:33:19;3.53;;;1.15;;
53503;SDS011;39387;50.998;22.340;2023-02-01T07:35:47;5.88;;;2.00;;
53503;SDS011;39387;50.998;22.340;2023-02-01T07:38:15;3.97;;;1.30;;
53503;SDS011;39387;50.998;22.340;2023-02-01T07:40:42;6.60;;;1.40;;
53503;SDS011;39387;50.998;22.340;2023-02-01T07:43:10;3.20;;;1.00;;
53503;SDS011;39387;50.998;22.340;2023-02-01T07:45:37;4.15;;;1.10;;
53503;SDS011;39387;50.998;22.340;2023-02-01T07:48:05;4.65;;;1.17;;
53503;SDS011;39387;50.998;22.340;2023-02-01T07:50:34;6.40;;;1.95;;
53503;SDS011;39387;50.998;22.340;2023-02-01T07:53:03;2.43;;;1.37;;
53503;SDS011;39387;50.998;22.340;2023-02-01T07:55:31;6.68;;;1.50;;
53503;SDS011;39387;50.998;22.340;2023-02-01T07:57:59;4.25;;;1.65;;
53503;SDS011;39387;50.998;22.340;2023-02-01T08:00:26;2.58;;;1.38;;
53503;SDS011;39387;50.998;22.340;2023-02-01T08:03:11;5.07;;;1.45;;
53503;SDS011;39387;50.998;22.340;2023-02-01T08:05:40;2.20;;;1.02;;
53503;SDS011;39387;50.998;22.340;2023-02-01T08:08:07;5.38;;;1.30;;
53503;SDS011;39387;50.998;22.340;2023-02-01T08:10:35;4.53;;;1.50;;
53503;SDS011;39387;50.998;22.340;2023-02-01T08:13:03;6.97;;;1.55;;
53503;SDS011;39387;50.998;22.340;2023-02-01T08:15:30;3.85;;;1.42;;
53503;SDS011;39387;50.998;22.340;2023-02-01T08:17:59;6.88;;;1.33;;
53503;SDS011;39387;50.998;22.340;2023-02-01T08:20:27;3.83;;;1.50;;
53503;SDS011;39387;50.998;22.340;2023-02-01T08:22:56;3.95;;;1.25;;
53503;SDS011;39387;50.998;22.340;2023-02-01T08:25:24;4.88;;;1.30;;
53503;SDS011;39387;50.998;22.340;2023-02-01T08:27:52;2.95;;;1.15;;
53503;SDS011;39387;50.998;22.340;2023-02-01T08:30:20;7.13;;;1.40;;
53503;SDS011;39387;50.998;22.340;2023-02-01T08:32:48;6.93;;;2.00;;
53503;SDS011;39387;50.998;22.340;2023-02-01T08:35:16;5.10;;;1.38;;
53503;SDS011;39387;50.998;22.340;2023-02-01T08:37:43;2.70;;;1.30;;
53503;SDS011;39387;50.998;22.340;2023-02-01T08:40:12;6.82;;;1.70;;
53503;SDS011;39387;50.998;22.340;2023-02-01T08:42:40;3.55;;;1.85;;
53503;SDS011;39387;50.998;22.340;2023-02-01T08:45:20;7.32;;;1.30;;
53503;SDS011;39387;50.998;22.340;2023-02-01T08:47:49;3.70;;;1.10;;
53503;SDS011;39387;50.998;22.340;2023-02-01T08:50:17;4.78;;;1.30;;
53503;SDS011;39387;50.998;22.340;2023-02-01T08:52:45;5.22;;;1.90;;
53503;SDS011;39387;50.998;22.340;2023-02-01T08:55:14;7.15;;;1.67;;
53503;SDS011;39387;50.998;22.340;2023-02-01T08:57:42;9.82;;;1.90;;
53503;SDS011;39387;50.998;22.340;2023-02-01T09:00:11;6.15;;;1.55;;
53503;SDS011;39387;50.998;22.340;2023-02-01T09:02:39;4.40;;;1.90;;
53503;SDS011;39387;50.998;22.340;2023-02-01T09:05:07;6.65;;;1.70;;
53503;SDS011;39387;50.998;22.340;2023-02-01T09:07:36;8.75;;;1.98;;
53503;SDS011;39387;50.998;22.340;2023-02-01T09:10:04;5.57;;;1.60;;
53503;SDS011;39387;50.998;22.340;2023-02-01T09:12:34;10.25;;;1.70;;
53503;SDS011;39387;50.998;22.340;2023-02-01T09:15:01;6.35;;;1.88;;
53503;SDS011;39387;50.998;22.340;2023-02-01T09:17:32;5.03;;;1.70;;
53503;SDS011;39387;50.998;22.340;2023-02-01T09:20:00;4.45;;;1.45;;
53503;SDS011;39387;50.998;22.340;2023-02-01T09:22:27;5.70;;;1.73;;
53503;SDS011;39387;50.998;22.340;2023-02-01T09:24:54;4.15;;;1.70;;
53503;SDS011;39387;50.998;22.340;2023-02-01T09:27:22;7.65;;;1.70;;
53503;SDS011;39387;50.998;22.340;2023-02-01T09:29:51;7.32;;;1.80;;
53503;SDS011;39387;50.998;22.340;2023-02-01T09:32:19;7.32;;;1.83;;
53503;SDS011;39387;50.998;22.340;2023-02-01T09:34:46;7.00;;;1.80;;
53503;SDS011;39387;50.998;22.340;2023-02-01T09:37:14;5.53;;;1.70;;
53503;SDS011;39387;50.998;22.340;2023-02-01T09:39:41;6.38;;;1.77;;
53503;SDS011;39387;50.998;22.340;2023-02-01T09:42:16;4.70;;;1.90;;
53503;SDS011;39387;50.998;22.340;2023-02-01T09:44:52;7.20;;;1.90;;
53503;SDS011;39387;50.998;22.340;2023-02-01T09:47:26;3.63;;;1.52;;
53503;SDS011;39387;50.998;22.340;2023-02-01T09:49:55;4.50;;;1.73;;
53503;SDS011;39387;50.998;22.340;2023-02-01T09:52:25;5.57;;;1.40;;
53503;SDS011;39387;50.998;22.340;2023-02-01T09:54:56;3.42;;;1.50;;
53503;SDS011;39387;50.998;22.340;2023-02-01T09:57:30;5.22;;;1.92;;
53503;SDS011;39387;50.998;22.340;2023-02-01T10:00:07;9.48;;;2.13;;
53503;SDS011;39387;50.998;22.340;2023-02-01T10:02:44;4.93;;;1.35;;
53503;SDS011;39387;50.998;22.340;2023-02-01T10:05:12;4.15;;;1.50;;
53503;SDS011;39387;50.998;22.340;2023-02-01T10:07:42;6.65;;;1.80;;
53503;SDS011;39387;50.998;22.340;2023-02-01T10:10:16;5.70;;;1.48;;
53503;SDS011;39387;50.998;22.340;2023-02-01T10:12:53;6.63;;;1.65;;
53503;SDS011;39387;50.998;22.340;2023-02-01T10:15:43;6.30;;;1.30;;
53503;SDS011;39387;50.998;22.340;2023-02-01T10:18:22;4.00;;;1.50;;
53503;SDS011;39387;50.998;22.340;2023-02-01T10:21:20;3.72;;;1.15;;
53503;SDS011;39387;50.998;22.340;2023-02-01T10:24:09;8.27;;;1.52;;
53503;SDS011;39387;50.998;22.340;2023-02-01T10:26:42;6.63;;;1.73;;
53503;SDS011;39387;50.998;22.340;2023-02-01T10:29:13;8.73;;;1.63;;
53503;SDS011;39387;50.998;22.340;2023-02-01T10:31:44;3.00;;;1.40;;
53503;SDS011;39387;50.998;22.340;2023-02-01T10:34:15;4.93;;;1.45;;
53503;SDS011;39387;50.998;22.340;2023-02-01T10:36:49;8.50;;;2.10;;
53503;SDS011;39387;50.998;22.340;2023-02-01T10:39:19;5.85;;;1.60;;
53503;SDS011;39387;50.998;22.340;2023-02-01T10:41:47;4.93;;;1.60;;
53503;SDS011;39387;50.998;22.340;2023-02-01T10:44:15;4.07;;;1.67;;
53503;SDS011;39387;50.998;22.340;2023-02-01T10:46:45;8.70;;;2.35;;
53503;SDS011;39387;50.998;22.340;2023-02-01T10:49:13;6.78;;;2.13;;
53503;SDS011;39387;50.998;22.340;2023-02-01T10:51:45;6.25;;;1.88;;
53503;SDS011;39387;50.998;22.340;2023-02-01T10:54:16;6.60;;;2.00;;
53503;SDS011;39387;50.998;22.340;2023-02-01T10:59:15;4.70;;;1.75;;
53503;SDS011;39387;50.998;22.340;2023-02-01T11:01:45;8.60;;;2.17;;
53503;SDS011;39387;50.998;22.340;2023-02-01T11:04:13;6.83;;;2.30;;
53503;SDS011;39387;50.998;22.340;2023-02-01T11:06:42;4.47;;;1.92;;
53503;SDS011;39387;50.998;22.340;2023-02-01T11:09:15;7.15;;;2.63;;
53503;SDS011;39387;50.998;22.340;2023-02-01T11:11:56;15.57;;;5.75;;
53503;SDS011;39387;50.998;22.340;2023-02-01T11:14:32;9.82;;;3.97;;
53503;SDS011;39387;50.998;22.340;2023-02-01T11:19:56;7.70;;;2.05;;
53503;SDS011;39387;50.998;22.340;2023-02-01T11:22:24;9.57;;;2.00;;
53503;SDS011;39387;50.998;22.340;2023-02-01T11:24:52;5.63;;;1.90;;
53503;SDS011;39387;50.998;22.340;2023-02-01T11:27:20;9.48;;;2.20;;
53503;SDS011;39387;50.998;22.340;2023-02-01T11:29:50;4.55;;;1.85;;
53503;SDS011;39387;50.998;22.340;2023-02-01T11:32:19;6.88;;;1.80;;
53503;SDS011;39387;50.998;22.340;2023-02-01T11:34:49;7.18;;;2.47;;
53503;SDS011;39387;50.998;22.340;2023-02-01T11:37:20;4.25;;;1.65;;
53503;SDS011;39387;50.998;22.340;2023-02-01T11:39:56;7.37;;;2.40;;
53503;SDS011;39387;50.998;22.340;2023-02-01T11:42:24;12.77;;;2.30;;
53503;SDS011;39387;50.998;22.340;2023-02-01T11:45:13;4.57;;;2.00;;
53503;SDS011;39387;50.998;22.340;2023-02-01T11:47:44;6.20;;;1.88;;
53503;SDS011;39387;50.998;22.340;2023-02-01T11:50:15;6.32;;;1.85;;
53503;SDS011;39387;50.998;22.340;2023-02-01T11:52:49;6.28;;;2.13;;
53503;SDS011;39387;50.998;22.340;2023-02-01T11:55:29;5.22;;;2.13;;
53503;SDS011;39387;50.998;22.340;2023-02-01T11:58:11;7.22;;;2.30;;
53503;SDS011;39387;50.998;22.340;2023-02-01T12:00:50;5.72;;;2.30;;
53503;SDS011;39387;50.998;22.340;2023-02-01T12:03:33;11.07;;;2.77;;
53503;SDS011;39387;50.998;22.340;2023-02-01T12:06:25;6.93;;;2.70;;
53503;SDS011;39387;50.998;22.340;2023-02-01T12:09:05;6.30;;;2.15;;
53503;SDS011;39387;50.998;22.340;2023-02-01T12:11:44;5.13;;;2.25;;
53503;SDS011;39387;50.998;22.340;2023-02-01T12:14:24;7.13;;;2.65;;
53503;SDS011;39387;50.998;22.340;2023-02-01T12:20:04;7.18;;;3.15;;
53503;SDS011;39387;50.998;22.340;2023-02-01T12:22:44;4.90;;;2.67;;
53503;SDS011;39387;50.998;22.340;2023-02-01T12:25:24;7.15;;;3.38;;
53503;SDS011;39387;50.998;22.340;2023-02-01T12:28:10;4.38;;;2.55;;
53503;SDS011;39387;50.998;22.340;2023-02-01T12:33:53;9.77;;;2.90;;
53503;SDS011;39387;50.998;22.340;2023-02-01T12:36:32;10.40;;;3.15;;
53503;SDS011;39387;50.998;22.340;2023-02-01T12:39:09;4.85;;;2.38;;
53503;SDS011;39387;50.998;22.340;2023-02-01T12:41:44;8.00;;;2.70;;
53503;SDS011;39387;50.998;22.340;2023-02-01T12:44:25;6.30;;;2.75;;
53503;SDS011;39387;50.998;22.340;2023-02-01T12:46:56;6.35;;;3.10;;
53503;SDS011;39387;50.998;22.340;2023-02-01T12:49:28;7.25;;;2.50;;
53503;SDS011;39387;50.998;22.340;2023-02-01T12:52:05;8.30;;;2.72;;
53503;SDS011;39387;50.998;22.340;2023-02-01T12:54:36;5.25;;;2.80;;
53503;SDS011;39387;50.998;22.340;2023-02-01T12:57:06;9.95;;;2.60;;
53503;SDS011;39387;50.998;22.340;2023-02-01T12:59:38;5.82;;;2.80;;
53503;SDS011;39387;50.998;22.340;2023-02-01T13:02:11;7.25;;;2.85;;
53503;SDS011;39387;50.998;22.340;2023-02-01T13:04:49;7.75;;;3.22;;
53503;SDS011;39387;50.998;22.340;2023-02-01T13:07:24;6.63;;;3.25;;
53503;SDS011;39387;50.998;22.340;2023-02-01T13:09:57;6.07;;;3.33;;
53503;SDS011;39387;50.998;22.340;2023-02-01T13:12:30;7.28;;;2.65;;
53503;SDS011;39387;50.998;22.340;2023-02-01T13:15:01;7.25;;;3.00;;
53503;SDS011;39387;50.998;22.340;2023-02-01T13:17:31;6.97;;;2.83;;
53503;SDS011;39387;50.998;22.340;2023-02-01T13:20:00;7.15;;;3.17;;
53503;SDS011;39387;50.998;22.340;2023-02-01T13:22:32;6.82;;;3.08;;
53503;SDS011;39387;50.998;22.340;2023-02-01T13:25:04;5.93;;;3.03;;
53503;SDS011;39387;50.998;22.340;2023-02-01T13:27:39;6.38;;;2.88;;
53503;SDS011;39387;50.998;22.340;2023-02-01T13:30:10;7.10;;;3.15;;
53503;SDS011;39387;50.998;22.340;2023-02-01T13:32:46;6.80;;;2.63;;
53503;SDS011;39387;50.998;22.340;2023-02-01T13:35:24;7.90;;;3.40;;
53503;SDS011;39387;50.998;22.340;2023-02-01T13:38:21;11.00;;;3.53;;
53503;SDS011;39387;50.998;22.340;2023-02-01T13:41:11;6.18;;;2.78;;
53503;SDS011;39387;50.998;22.340;2023-02-01T13:43:47;6.28;;;3.60;;
53503;SDS011;39387;50.998;22.340;2023-02-01T13:46:16;6.13;;;3.60;;
53503;SDS011;39387;50.998;22.340;2023-02-01T13:48:45;8.90;;;3.67;;
53503;SDS011;39387;50.998;22.340;2023-02-01T13:51:15;7.28;;;3.90;;
53503;SDS011;39387;50.998;22.340;2023-02-01T13:53:44;7.63;;;3.90;;
53503;SDS011;39387;50.998;22.340;2023-02-01T13:56:15;6.07;;;3.70;;
53503;SDS011;39387;50.998;22.340;2023-02-01T13:58:44;8.00;;;3.65;;
53503;SDS011;39387;50.998;22.340;2023-02-01T14:04:06;6.97;;;3.83;;
53503;SDS011;39387;50.998;22.340;2023-02-01T14:07:17;9.25;;;3.28;;
53503;SDS011;39387;50.998;22.340;2023-02-01T14:09:46;7.13;;;3.40;;
53503;SDS011;39387;50.998;22.340;2023-02-01T14:15:19;5.78;;;2.95;;
53503;SDS011;39387;50.998;22.340;2023-02-01T14:17:49;9.60;;;3.30;;
53503;SDS011;39387;50.998;22.340;2023-02-01T14:23:20;7.18;;;3.53;;
53503;SDS011;39387;50.998;22.340;2023-02-01T14:26:05;7.55;;;3.38;;
53503;SDS011;39387;50.998;22.340;2023-02-01T14:28:36;8.02;;;3.15;;
53503;SDS011;39387;50.998;22.340;2023-02-01T14:31:14;7.95;;;3.38;;
53503;SDS011;39387;50.998;22.340;2023-02-01T14:33:44;8.95;;;3.42;;
53503;SDS011;39387;50.998;22.340;2023-02-01T14:36:13;7.95;;;3.78;;
53503;SDS011;39387;50.998;22.340;2023-02-01T14:38:47;7.10;;;3.20;;
53503;SDS011;39387;50.998;22.340;2023-02-01T14:41:28;7.57;;;3.88;;
53503;SDS011;39387;50.998;22.340;2023-02-01T14:44:21;8.00;;;3.63;;
53503;SDS011;39387;50.998;22.340;2023-02-01T14:50:03;7.13;;;3.58;;
53503;SDS011;39387;50.998;22.340;2023-02-01T14:52:46;8.05;;;3.83;;
53503;SDS011;39387;50.998;22.340;2023-02-01T14:55:15;9.93;;;3.75;;
53503;SDS011;39387;50.998;22.340;2023-02-01T14:57:46;9.98;;;4.05;;
53503;SDS011;39387;50.998;22.340;2023-02-01T15:00:21;11.83;;;4.17;;
53503;SDS011;39387;50.998;22.340;2023-02-01T15:02:50;5.97;;;3.22;;
53503;SDS011;39387;50.998;22.340;2023-02-01T15:05:26;8.18;;;3.67;;
53503;SDS011;39387;50.998;22.340;2023-02-01T15:07:59;10.82;;;3.70;;
53503;SDS011;39387;50.998;22.340;2023-02-01T15:10:32;9.73;;;3.90;;
53503;SDS011;39387;50.998;22.340;2023-02-01T15:13:00;6.88;;;3.40;;
53503;SDS011;39387;50.998;22.340;2023-02-01T15:15:29;9.38;;;3.80;;
53503;SDS011;39387;50.998;22.340;2023-02-01T15:18:01;15.98;;;4.40;;
53503;SDS011;39387;50.998;22.340;2023-02-01T15:20:30;10.02;;;3.47;;
53503;SDS011;39387;50.998;22.340;2023-02-01T15:22:58;13.52;;;4.53;;
53503;SDS011;39387;50.998;22.340;2023-02-01T15:25:28;8.98;;;4.05;;
53503;SDS011;39387;50.998;22.340;2023-02-01T15:27:57;8.32;;;3.42;;